createdAt,value
2022-11-18T00:00:56.229Z,99949.31
2022-11-18T00:03:23.522Z,99934.16
2022-11-18T00:05:57.362Z,99960.84
2022-11-18T00:08:25.207Z,99962.47
2022-11-18T00:10:52.048Z,99955.81
2022-11-18T00:13:37.456Z,99965.66
2022-11-18T00:16:06.517Z,99964.50
2022-11-18T00:18:33.364Z,99976.69
2022-11-18T00:21:08.487Z,99975.19
2022-11-18T00:23:35.402Z,99980.00
2022-11-18T00:26:11.100Z,99987.00
2022-11-18T00:28:37.698Z,99984.84
2022-11-18T00:31:11.735Z,99973.19
2022-11-18T00:33:38.867Z,99990.69
2022-11-18T00:36:11.026Z,100001.19
2022-11-18T00:38:37.900Z,99987.53
2022-11-18T00:41:07.155Z,100011.84
2022-11-18T00:43:35.311Z,100007.19
2022-11-18T00:46:02.183Z,99999.88
2022-11-18T00:48:28.934Z,100004.53
2022-11-18T00:50:57.767Z,100014.88
2022-11-18T00:53:26.093Z,100018.22
2022-11-18T00:55:52.876Z,99988.19
2022-11-18T00:58:19.544Z,100028.88
2022-11-18T01:00:50.212Z,100019.69
2022-11-18T01:03:16.761Z,100031.38
2022-11-18T01:05:44.408Z,100026.72
2022-11-18T01:08:12.848Z,100038.53
2022-11-18T01:10:40.909Z,100037.69
2022-11-18T01:13:22.945Z,100034.38
2022-11-18T01:15:56.126Z,100040.38
2022-11-18T01:18:25.348Z,100040.88
2022-11-18T01:20:52.206Z,100044.22
2022-11-18T01:23:20.417Z,100049.56
2022-11-18T01:25:48.799Z,100047.22
2022-11-18T01:28:21.970Z,100050.88
2022-11-18T01:30:50.324Z,100050.88
2022-11-18T01:33:16.710Z,100046.53
2022-11-18T01:35:43.869Z,100047.88
2022-11-18T01:38:14.539Z,100050.25
2022-11-18T01:40:41.553Z,100054.06
2022-11-18T01:43:17.626Z,100052.06
2022-11-18T01:45:46.667Z,100055.91
2022-11-18T01:48:24.954Z,100060.06
2022-11-18T01:51:02.219Z,100059.41
2022-11-18T01:53:37.807Z,100063.91
2022-11-18T01:56:09.312Z,100063.72
2022-11-18T01:58:45.823Z,100075.91
2022-11-18T02:01:13.306Z,100020.88
2022-11-18T02:03:40.123Z,100075.41
2022-11-18T02:06:08.521Z,100081.91
2022-11-18T02:08:37.555Z,100092.91
2022-11-18T02:11:05.727Z,100101.91
2022-11-18T02:13:35.107Z,100101.91
2022-11-18T02:16:22.992Z,100104.56
2022-11-18T02:18:57.193Z,100095.75
2022-11-18T02:22:06.334Z,100101.06
2022-11-18T02:24:51.731Z,100101.41
2022-11-18T02:27:20.827Z,100107.25
2022-11-18T02:30:02.051Z,100104.41
2022-11-18T02:32:44.020Z,100112.75
2022-11-18T02:35:38.293Z,100115.41
2022-11-18T02:38:14.419Z,100076.53
2022-11-18T02:40:55.231Z,100111.25
2022-11-18T02:43:27.748Z,100113.25
2022-11-18T02:45:58.681Z,100118.41
2022-11-18T02:48:28.942Z,100106.06
2022-11-18T02:50:55.572Z,100119.72
2022-11-18T02:53:24.202Z,100107.22
2022-11-18T02:55:52.486Z,100118.88
2022-11-18T02:58:21.115Z,100119.06
2022-11-18T03:00:59.065Z,100131.56
2022-11-18T03:03:30.012Z,100121.41
2022-11-18T03:06:24.128Z,100129.41
2022-11-18T03:09:09.019Z,100136.06
2022-11-18T03:11:54.532Z,100134.56
2022-11-18T03:14:36.021Z,100140.72
2022-11-18T03:17:19.853Z,100133.91
2022-11-18T03:20:15.995Z,100135.06
2022-11-18T03:22:56.249Z,100146.38
2022-11-18T03:25:32.059Z,100148.53
2022-11-18T03:28:10.467Z,100158.72
2022-11-18T03:30:39.995Z,100153.22
2022-11-18T03:33:11.824Z,100149.53
2022-11-18T03:35:42.628Z,100157.38
2022-11-18T03:38:15.443Z,100157.84
2022-11-18T03:40:48.522Z,100166.38
2022-11-18T03:43:25.833Z,100162.22
2022-11-18T03:45:57.861Z,100164.03
2022-11-18T03:48:29.093Z,100158.84
2022-11-18T03:51:07.432Z,100173.03
2022-11-18T03:53:38.547Z,100143.81
2022-11-18T03:56:18.667Z,100165.66
2022-11-18T03:59:13.272Z,100181.19
2022-11-18T04:01:47.302Z,100146.97
2022-11-18T04:04:14.441Z,100180.34
2022-11-18T04:06:59.408Z,100193.50
2022-11-18T04:09:34.936Z,100190.81
2022-11-18T04:12:10.478Z,100181.00
2022-11-18T04:14:38.860Z,100198.38
2022-11-18T04:17:09.021Z,100199.50
2022-11-18T04:19:35.512Z,100201.88
2022-11-18T04:22:01.929Z,100214.19
2022-11-18T04:24:28.348Z,100204.00
2022-11-18T04:26:54.724Z,100207.50
2022-11-18T04:29:21.111Z,100203.16
2022-11-18T04:31:47.493Z,100215.50
2022-11-18T04:34:13.987Z,100223.34
2022-11-18T04:36:40.491Z,100219.81
2022-11-18T04:39:06.942Z,100228.34
2022-11-18T04:41:56.199Z,100221.47
2022-11-18T04:44:24.335Z,100236.66
2022-11-18T04:46:50.875Z,100236.78
2022-11-18T04:49:17.694Z,100241.97
2022-11-18T04:51:44.806Z,100243.09
2022-11-18T04:54:12.308Z,100242.97
2022-11-18T04:56:40.036Z,100210.63
2022-11-18T04:59:09.929Z,100252.56
2022-11-18T05:01:36.407Z,100224.00
2022-11-18T05:04:04.624Z,100247.75
2022-11-18T05:06:32.250Z,100256.63
2022-11-18T05:08:59.788Z,100256.78
2022-11-18T05:11:45.865Z,100259.78
2022-11-18T05:14:12.872Z,100261.75
2022-11-18T05:16:39.339Z,100249.34
2022-11-18T05:19:06.837Z,100269.06
2022-11-18T05:21:33.699Z,100267.88
2022-11-18T05:24:00.991Z,100271.59
2022-11-18T05:26:27.765Z,100277.41
2022-11-18T05:28:54.337Z,100279.72
2022-11-18T05:31:20.740Z,100279.06
2022-11-18T05:33:47.169Z,100288.72
2022-11-18T05:36:18.980Z,100287.66
2022-11-18T05:38:45.776Z,100286.81
2022-11-18T05:41:32.788Z,100293.44
2022-11-18T05:43:59.300Z,100293.00
2022-11-18T05:46:26.166Z,100298.97
2022-11-18T05:48:52.684Z,100285.06
2022-11-18T05:51:19.130Z,100300.59
2022-11-18T05:53:46.596Z,100304.94
2022-11-18T05:56:22.211Z,100304.94
2022-11-18T05:58:48.638Z,100293.72
2022-11-18T06:01:21.155Z,100316.91
2022-11-18T06:03:47.894Z,100312.91
2022-11-18T06:06:20.145Z,100325.91
2022-11-18T06:08:52.482Z,100312.50
2022-11-18T06:11:20.413Z,100319.25
2022-11-18T06:13:59.770Z,100324.22
2022-11-18T06:16:29.739Z,100328.09
2022-11-18T06:18:56.576Z,100337.91
2022-11-18T06:21:23.500Z,100339.91
2022-11-18T06:23:50.147Z,100347.44
2022-11-18T06:26:17.293Z,100353.91
2022-11-18T06:28:47.615Z,100357.59
2022-11-18T06:31:14.114Z,100364.75
2022-11-18T06:33:40.751Z,100371.56
2022-11-18T06:36:07.548Z,100366.19
2022-11-18T06:38:33.903Z,100373.34
2022-11-18T06:41:01.338Z,100382.56
2022-11-18T06:43:41.460Z,100386.44
2022-11-18T06:46:30.042Z,100384.22
2022-11-18T06:48:56.784Z,100385.13
2022-11-18T06:51:24.106Z,100398.00
2022-11-18T06:53:50.901Z,100369.56
2022-11-18T06:56:18.992Z,100406.78
2022-11-18T06:58:46.141Z,100399.31
2022-11-18T07:01:21.954Z,100405.25
2022-11-18T07:03:49.022Z,100412.41
2022-11-18T07:06:17.983Z,100420.53
2022-11-18T07:08:45.019Z,100422.34
2022-11-18T07:11:16.053Z,100430.66
2022-11-18T07:13:43.930Z,100400.81
2022-11-18T07:16:29.029Z,100413.84
2022-11-18T07:18:56.091Z,100428.72
2022-11-18T07:21:27.905Z,100436.00
2022-11-18T07:23:55.810Z,100430.97
2022-11-18T07:26:22.486Z,100439.97
2022-11-18T07:28:49.152Z,100423.75
2022-11-18T07:31:18.049Z,100434.03
2022-11-18T07:33:45.560Z,100437.97
2022-11-18T07:36:20.903Z,100444.00
2022-11-18T07:38:47.955Z,100414.44
2022-11-18T07:41:17.000Z,100439.56
2022-11-18T07:43:44.240Z,100457.22
2022-11-18T07:46:10.695Z,100454.56
2022-11-18T07:48:37.259Z,100460.50
2022-11-18T07:51:03.725Z,100467.34
2022-11-18T07:53:31.628Z,100463.63
2022-11-18T07:55:57.995Z,100444.03
2022-11-18T07:58:24.373Z,100466.41
2022-11-18T08:00:50.764Z,100480.34
2022-11-18T08:03:17.151Z,100470.66
2022-11-18T08:05:43.551Z,100478.47
2022-11-18T08:08:10.844Z,100479.13
2022-11-18T08:10:37.775Z,100497.38
2022-11-18T08:13:04.156Z,100500.28
2022-11-18T08:15:30.506Z,100498.84
2022-11-18T08:17:56.880Z,100506.75
2022-11-18T08:20:27.116Z,100499.19
2022-11-18T08:22:53.592Z,100503.81
2022-11-18T08:25:19.940Z,100510.50
2022-11-18T08:27:46.339Z,100517.59
2022-11-18T08:30:13.014Z,100482.13
2022-11-18T08:32:39.411Z,100500.53
2022-11-18T08:35:10.807Z,100517.06
2022-11-18T08:37:37.528Z,100511.28
2022-11-18T08:40:04.831Z,100482.63
2022-11-18T08:42:34.238Z,100501.75
2022-11-18T08:45:01.074Z,100518.38
2022-11-18T08:47:27.453Z,100522.34
2022-11-18T08:49:53.838Z,100522.94
2022-11-18T08:52:20.192Z,100531.47
2022-11-18T08:54:46.613Z,100535.44
2022-11-18T08:57:12.999Z,100535.56
2022-11-18T08:59:39.347Z,100533.28
2022-11-18T09:02:06.070Z,100541.97
2022-11-18T09:04:32.501Z,100539.13
2022-11-18T09:06:59.598Z,100537.34
2022-11-18T09:09:26.008Z,100552.19
2022-11-18T09:11:52.461Z,100554.16
2022-11-18T09:17:05.235Z,100566.53
2022-11-18T09:19:46.710Z,100572.66
2022-11-18T09:22:14.270Z,100578.78
2022-11-18T09:24:40.856Z,100576.38
2022-11-18T09:27:12.184Z,100579.44
2022-11-18T09:29:38.900Z,100593.34
2022-11-18T09:32:05.256Z,100591.38
2022-11-18T09:34:34.383Z,100602.63
2022-11-18T09:37:00.752Z,100605.97
2022-11-18T09:39:27.117Z,100596.91
2022-11-18T09:42:12.487Z,100613.13
2022-11-18T09:44:42.298Z,100606.25
2022-11-18T09:47:25.218Z,100611.19
2022-11-18T09:49:52.311Z,100613.13
2022-11-18T09:52:23.902Z,100617.03
2022-11-18T09:54:50.700Z,100625.59
2022-11-18T09:57:24.612Z,100625.03
2022-11-18T09:59:51.901Z,100627.53
2022-11-18T10:02:48.608Z,100622.34
2022-11-18T10:05:17.036Z,100632.75
2022-11-18T10:07:57.912Z,100635.69
2022-11-18T10:10:51.912Z,100636.69
2022-11-18T10:13:25.367Z,100642.72
2022-11-18T10:16:23.094Z,100603.94
2022-11-18T10:19:00.671Z,100652.13
2022-11-18T10:22:11.812Z,100644.53
2022-11-18T10:24:45.258Z,100647.09
2022-11-18T10:27:15.040Z,100644.69
2022-11-18T10:29:43.009Z,100656.75
2022-11-18T10:32:15.576Z,100647.38
2022-11-18T10:34:54.017Z,100662.50
2022-11-18T10:37:45.306Z,100662.09
2022-11-18T10:40:24.749Z,100668.09
2022-11-18T10:42:51.329Z,100668.94
2022-11-18T10:45:26.418Z,100673.72
2022-11-18T10:47:58.491Z,100676.22
2022-11-18T10:50:31.189Z,100685.47
2022-11-18T10:52:59.131Z,100680.16
2022-11-18T10:55:28.364Z,100672.88
2022-11-18T10:58:02.854Z,100694.13
2022-11-18T11:00:35.328Z,100667.25
2022-11-18T11:03:20.867Z,100697.75
2022-11-18T11:05:47.339Z,100705.91
2022-11-18T11:08:36.268Z,100709.41
2022-11-18T11:11:04.014Z,100713.88
2022-11-18T11:13:31.621Z,100717.81
2022-11-18T11:16:04.842Z,100699.88
2022-11-18T11:18:42.460Z,100720.88
2022-11-18T11:21:12.836Z,100723.97
2022-11-18T11:23:39.302Z,100702.81
2022-11-18T11:29:27.876Z,100719.06
2022-11-18T11:32:25.780Z,100715.97
2022-11-18T11:35:19.934Z,100723.69
2022-11-18T11:38:01.040Z,100731.66
2022-11-18T11:41:06.807Z,100733.91
2022-11-18T11:44:04.074Z,100729.13
2022-11-18T11:46:42.630Z,100736.25
2022-11-18T11:49:20.705Z,100745.34
2022-11-18T11:52:44.442Z,100740.00
2022-11-18T11:55:31.955Z,100759.03
2022-11-18T11:58:00.780Z,100746.16
2022-11-18T12:00:28.775Z,100739.16
2022-11-18T12:03:52.008Z,100749.25
2022-11-18T12:06:18.985Z,100747.16
2022-11-18T12:09:10.602Z,100748.84
2022-11-18T12:11:51.551Z,100745.19
2022-11-18T12:14:39.892Z,100752.59
2022-11-18T12:17:15.309Z,100763.34
2022-11-18T12:19:41.867Z,100721.16
2022-11-18T12:22:08.284Z,100764.91
2022-11-18T12:24:37.039Z,100771.38
2022-11-18T12:27:10.949Z,100776.91
2022-11-18T12:29:44.396Z,100777.22
2022-11-18T12:32:42.248Z,100783.22
2022-11-18T12:35:11.699Z,100777.69
2022-11-18T12:37:42.694Z,100775.84
2022-11-18T12:40:10.790Z,100781.38
2022-11-18T12:43:04.166Z,100784.03
2022-11-18T12:45:43.304Z,100788.81
2022-11-18T12:48:36.118Z,100785.75
2022-11-18T12:51:14.351Z,100790.75
2022-11-18T12:53:47.860Z,100791.00
2022-11-18T12:56:17.166Z,100791.25
2022-11-18T12:58:49.060Z,100804.06
2022-11-18T13:01:21.716Z,100798.41
2022-11-18T13:03:48.308Z,100800.50
2022-11-18T13:06:28.322Z,100800.88
2022-11-18T13:09:25.213Z,100801.72
2022-11-18T13:11:58.739Z,100800.00
2022-11-18T13:14:55.037Z,100805.44
2022-11-18T13:17:51.743Z,100810.72
2022-11-18T13:20:36.143Z,100821.03
2022-11-18T13:23:30.110Z,100834.72
2022-11-18T13:26:12.518Z,100776.31
2022-11-18T13:28:52.440Z,100778.88
2022-11-18T13:31:37.597Z,100836.63
2022-11-18T13:34:12.793Z,100805.75
2022-11-18T13:36:44.624Z,100819.06
2022-11-18T13:39:23.197Z,100821.50
2022-11-18T13:42:26.341Z,100844.66
2022-11-18T13:45:02.915Z,100846.34
2022-11-18T13:47:52.638Z,100841.03
2022-11-18T13:50:52.691Z,100856.97
2022-11-18T13:53:25.014Z,100858.72
2022-11-18T13:55:59.345Z,100832.63
2022-11-18T13:58:33.986Z,100849.78
2022-11-18T14:01:15.128Z,100845.94
2022-11-18T14:03:44.295Z,100852.84
2022-11-18T14:06:10.744Z,100859.13
2022-11-18T14:08:39.053Z,100860.34
2022-11-18T14:11:06.847Z,100846.34
2022-11-18T14:13:36.713Z,100871.63
2022-11-18T14:16:21.100Z,100877.78
2022-11-18T14:18:49.952Z,100880.06
2022-11-18T14:21:28.266Z,100886.16
2022-11-18T14:23:54.898Z,100882.38
2022-11-18T14:26:38.052Z,100897.81
2022-11-18T14:29:23.222Z,100886.38
2022-11-18T14:32:13.304Z,100892.59
2022-11-18T14:34:39.641Z,100895.59
2022-11-18T14:37:13.845Z,100909.31
2022-11-18T14:39:41.321Z,100905.81
2022-11-18T14:42:13.097Z,100915.09
2022-11-18T14:44:39.647Z,100893.19
2022-11-18T14:47:20.113Z,100915.69
2022-11-18T14:49:46.535Z,100911.13
2022-11-18T14:52:12.909Z,100921.97
2022-11-18T14:54:39.305Z,100931.53
2022-11-18T14:57:06.074Z,100930.19
2022-11-18T14:59:32.481Z,100903.56
2022-11-18T15:01:59.466Z,100929.47
2022-11-18T15:04:26.165Z,100936.22
2022-11-18T15:06:52.745Z,100937.44
2022-11-18T15:09:19.201Z,100940.94
2022-11-18T15:11:45.579Z,100942.50
2022-11-18T15:14:11.968Z,100943.13
2022-11-18T15:16:38.440Z,100933.56
2022-11-18T15:19:06.532Z,100961.78
2022-11-18T15:21:33.387Z,100961.28
2022-11-18T15:23:59.843Z,100961.09
2022-11-18T15:26:46.625Z,100968.56
2022-11-18T15:29:18.809Z,100966.50
2022-11-18T15:31:46.131Z,100979.16
2022-11-18T15:34:13.085Z,100970.50
2022-11-18T15:36:39.568Z,100980.63
2022-11-18T15:39:06.024Z,100949.25
2022-11-18T15:41:32.588Z,100991.56
2022-11-18T15:44:00.183Z,100975.31
2022-11-18T15:46:28.170Z,100989.91
2022-11-18T15:48:56.314Z,100995.56
2022-11-18T15:51:24.227Z,100995.81
2022-11-18T15:53:50.835Z,100991.22
2022-11-18T15:56:22.592Z,101001.00
2022-11-18T15:58:58.792Z,100993.84
2022-11-18T16:01:27.415Z,101015.34
2022-11-18T16:03:54.602Z,101015.31
2022-11-18T16:06:21.777Z,101018.47
2022-11-18T16:08:48.813Z,101017.88
2022-11-18T16:11:35.877Z,101029.44
2022-11-18T16:14:03.466Z,101035.06
2022-11-18T16:16:30.175Z,101036.28
2022-11-18T16:18:58.115Z,100991.94
2022-11-18T16:21:25.611Z,101026.63
2022-11-18T16:23:56.112Z,101042.81
2022-11-18T16:26:22.461Z,101036.28
2022-11-18T16:28:48.896Z,100984.19
2022-11-18T16:31:33.857Z,101039.09
2022-11-18T16:34:05.215Z,101048.13
2022-11-18T16:36:31.654Z,101009.75
2022-11-18T16:38:58.092Z,101049.31
2022-11-18T16:41:33.387Z,101051.81
2022-11-18T16:44:05.242Z,101058.25
2022-11-18T16:46:34.094Z,101063.66
2022-11-18T16:49:01.452Z,101053.28
2022-11-18T16:51:30.089Z,101070.53
2022-11-18T16:53:59.148Z,101076.69
2022-11-18T16:56:31.428Z,101075.34
2022-11-18T16:59:11.478Z,101082.22
2022-11-18T17:01:37.912Z,101091.28
2022-11-18T17:04:04.482Z,101081.94
2022-11-18T17:06:31.912Z,101090.72
2022-11-18T17:08:59.501Z,101095.56
2022-11-18T17:11:26.504Z,101083.63
2022-11-18T17:13:57.788Z,101094.13
2022-11-18T17:16:26.037Z,101100.84
2022-11-18T17:18:58.228Z,101098.63
2022-11-18T17:21:27.318Z,101104.69
2022-11-18T17:23:54.985Z,101106.84
2022-11-18T17:26:27.116Z,101110.91
2022-11-18T17:28:55.592Z,101108.91
2022-11-18T17:31:24.236Z,101111.47
2022-11-18T17:33:53.252Z,101127.81
2022-11-18T17:36:22.022Z,101106.50
2022-11-18T17:38:50.935Z,101126.81
2022-11-18T17:41:38.828Z,101127.84
2022-11-18T17:44:06.987Z,101137.84
2022-11-18T17:46:37.988Z,101142.50
2022-11-18T17:49:09.976Z,101141.03
2022-11-18T17:51:36.333Z,101145.16
2022-11-18T17:54:02.845Z,101157.13
2022-11-18T17:56:29.234Z,101162.66
2022-11-18T17:58:55.786Z,101167.72
2022-11-18T18:01:23.204Z,101170.47
2022-11-18T18:03:49.835Z,101163.41
2022-11-18T18:06:17.071Z,101162.44
2022-11-18T18:08:43.535Z,101173.56
2022-11-18T18:11:12.738Z,101173.84
2022-11-18T18:13:58.770Z,101132.63
2022-11-18T18:16:26.276Z,101172.88
2022-11-18T18:18:52.964Z,101173.44
2022-11-18T18:21:19.513Z,101156.09
2022-11-18T18:23:46.321Z,101185.38
2022-11-18T18:26:12.934Z,101183.72
2022-11-18T18:28:39.274Z,101188.16
2022-11-18T18:31:08.694Z,101195.03
2022-11-18T18:33:36.549Z,101192.38
2022-11-18T18:36:05.102Z,101201.63
2022-11-18T18:38:33.334Z,101198.22
2022-11-18T18:41:05.252Z,101195.72
2022-11-18T18:43:31.616Z,101194.41
2022-11-18T18:46:25.822Z,101197.16
2022-11-18T18:48:52.197Z,101206.88
2022-11-18T18:51:18.534Z,101199.72
2022-11-18T18:53:45.041Z,101201.19
2022-11-18T18:56:13.233Z,101216.03
2022-11-18T18:58:39.766Z,101216.47
2022-11-18T19:01:12.334Z,101215.41
2022-11-18T19:03:39.002Z,101226.84
2022-11-18T19:06:50.040Z,101228.34
2022-11-18T19:09:09.378Z,101222.41
2022-11-18T19:11:55.025Z,101226.00
2022-11-18T19:14:21.685Z,101228.97
2022-11-18T19:16:48.735Z,101232.66
2022-11-18T19:19:18.426Z,101232.34
2022-11-18T19:21:47.576Z,101229.31
2022-11-18T19:24:28.698Z,101245.91
2022-11-18T19:27:00.273Z,101245.28
2022-11-18T19:29:26.760Z,101247.50
2022-11-18T19:31:53.131Z,101235.56
2022-11-18T19:34:19.949Z,101219.78
2022-11-18T19:36:46.690Z,101254.28
2022-11-18T19:39:13.189Z,101245.09
2022-11-18T19:41:39.782Z,101255.88
2022-11-18T19:44:06.172Z,101265.84
2022-11-18T19:46:33.038Z,101266.91
2022-11-18T19:48:59.427Z,101270.72
2022-11-18T19:51:25.828Z,101277.06
2022-11-18T19:53:55.748Z,101282.03
2022-11-18T19:56:25.931Z,101275.69
2022-11-18T19:58:54.669Z,101277.06
2022-11-18T20:01:27.599Z,101276.22
2022-11-18T20:03:57.617Z,101284.06
2022-11-18T20:06:26.677Z,101291.38
2022-11-18T20:08:53.922Z,101278.16
2022-11-18T20:11:21.596Z,101285.09
2022-11-18T20:13:48.338Z,101282.59
2022-11-18T20:16:18.753Z,101294.03
2022-11-18T20:18:49.550Z,101286.09
2022-11-18T20:21:20.298Z,101287.88
2022-11-18T20:23:48.141Z,101281.84
2022-11-18T20:26:16.776Z,101293.19
2022-11-18T20:28:45.570Z,101298.16
2022-11-18T20:31:15.564Z,101275.78
2022-11-18T20:33:44.502Z,101301.84
2022-11-18T20:36:12.967Z,101306.00
2022-11-18T20:38:40.773Z,101295.50
2022-11-18T20:41:09.917Z,101305.06
2022-11-18T20:43:37.838Z,101304.41
2022-11-18T20:46:07.440Z,101300.81
2022-11-18T20:48:34.877Z,101303.53
2022-11-18T20:51:05.929Z,101280.13
2022-11-18T20:53:32.399Z,101298.91
2022-11-18T20:55:58.765Z,101306.00
2022-11-18T20:58:25.278Z,101321.97
2022-11-18T21:00:51.928Z,101329.41
2022-11-18T21:03:20.307Z,101338.81
2022-11-18T21:05:46.791Z,101327.59
2022-11-18T21:08:13.188Z,101321.53
2022-11-18T21:10:39.608Z,101335.53
2022-11-18T21:13:24.280Z,101332.47
2022-11-18T21:15:50.611Z,101328.00
2022-11-18T21:18:16.949Z,101324.72
2022-11-18T21:21:01.714Z,101338.78
2022-11-18T21:23:28.186Z,101340.59
2022-11-18T21:25:54.546Z,101348.25
2022-11-18T21:28:20.953Z,101347.69
2022-11-18T21:30:47.352Z,101338.88
2022-11-18T21:33:14.195Z,101345.88
2022-11-18T21:35:40.563Z,101344.81
2022-11-18T21:38:07.123Z,101326.34
2022-11-18T21:40:33.476Z,101342.25
2022-11-18T21:42:59.942Z,101350.72
2022-11-18T21:45:26.288Z,101365.47
2022-11-18T21:47:52.619Z,101363.28
2022-11-18T21:50:19.050Z,101353.94
2022-11-18T21:52:45.387Z,101363.56
2022-11-18T21:55:11.823Z,101370.47
2022-11-18T21:57:41.066Z,101374.28
2022-11-18T22:00:08.025Z,101369.63
2022-11-18T22:02:34.393Z,101360.06
2022-11-18T22:05:06.527Z,101371.31
2022-11-18T22:07:33.218Z,101334.28
2022-11-18T22:09:59.679Z,101374.16
2022-11-18T22:12:26.204Z,101384.00
2022-11-18T22:14:52.577Z,101384.88
2022-11-18T22:17:18.934Z,101387.38
2022-11-18T22:19:45.291Z,101376.78
2022-11-18T22:22:11.740Z,101379.66
2022-11-18T22:24:38.073Z,101373.63
2022-11-18T22:27:09.909Z,101372.66
2022-11-18T22:29:37.601Z,101377.56
2022-11-18T22:32:04.128Z,101383.69
2022-11-18T22:34:30.604Z,101333.75
2022-11-18T22:36:56.946Z,101354.19
2022-11-18T22:39:23.309Z,101354.41
2022-11-18T22:42:09.944Z,101391.19
2022-11-18T22:44:36.425Z,101373.44
2022-11-18T22:47:03.916Z,101385.91
2022-11-18T22:49:30.284Z,101339.13
2022-11-18T22:51:56.725Z,101391.00
2022-11-18T22:54:39.824Z,101380.81
2022-11-18T22:57:06.897Z,101393.94
2022-11-18T22:59:33.232Z,101400.94
2022-11-18T23:02:01.522Z,101410.97
2022-11-18T23:04:27.884Z,101411.06
2022-11-18T23:06:54.290Z,101407.28
2022-11-18T23:09:20.915Z,101412.00
2022-11-18T23:12:05.989Z,101417.63
2022-11-18T23:14:32.576Z,101421.44
2022-11-18T23:16:59.464Z,101396.44
2022-11-18T23:19:25.852Z,101429.63
2022-11-18T23:21:52.185Z,101438.72
2022-11-18T23:24:19.128Z,101437.03
2022-11-18T23:26:45.985Z,101451.88
2022-11-18T23:29:13.977Z,101430.56
2022-11-18T23:31:42.856Z,101456.88
2022-11-18T23:34:14.446Z,101464.28
2022-11-18T23:36:41.479Z,101457.28
2022-11-18T23:39:08.064Z,101472.59
2022-11-18T23:41:34.483Z,101474.97
2022-11-18T23:44:00.894Z,101478.28
2022-11-18T23:46:27.678Z,101472.44
2022-11-18T23:48:54.252Z,101463.75
2022-11-18T23:51:22.425Z,101476.59
2022-11-18T23:53:53.292Z,101482.81
2022-11-18T23:56:21.050Z,101477.63
2022-11-18T23:58:49.949Z,101475.06
